createdAt,value
2018-05-13T00:00:02.994Z,0
2018-05-13T00:01:03.026Z,0
2018-05-13T00:02:03.014Z,0
2018-05-13T00:03:02.987Z,0
2018-05-13T00:04:03.014Z,0
2018-05-13T00:05:02.982Z,0
2018-05-13T00:06:03.011Z,0
2018-05-13T00:07:02.704Z,0
2018-05-13T00:08:02.741Z,0
2018-05-13T00:09:02.687Z,0
2018-05-13T00:10:02.978Z,0
2018-05-13T00:11:02.940Z,0
2018-05-13T00:12:02.978Z,0
2018-05-13T00:13:02.953Z,0
2018-05-13T00:14:02.958Z,0
2018-05-13T00:15:02.917Z,0
2018-05-13T00:16:02.955Z,0
2018-05-13T00:28:02.878Z,0
2018-05-13T00:29:02.623Z,0
2018-05-13T00:30:02.842Z,0
2018-05-13T00:31:02.634Z,0
2018-05-13T00:32:02.880Z,0
2018-05-13T00:33:02.622Z,0
2018-05-13T00:34:02.820Z,0
2018-05-13T00:35:02.600Z,0
2018-05-13T00:36:02.306Z,0
2018-05-13T00:37:02.845Z,0
2018-05-13T00:38:03.003Z,0
2018-05-13T00:39:02.849Z,0
2018-05-13T00:40:02.819Z,0
2018-05-13T00:41:02.804Z,0
2018-05-13T00:42:02.572Z,0
2018-05-13T00:43:02.833Z,0
2018-05-13T00:44:02.802Z,0
2018-05-13T00:45:02.779Z,0
2018-05-13T00:46:02.523Z,0
2018-05-13T00:47:02.802Z,0
2018-05-13T00:48:02.522Z,0
2018-05-13T00:49:02.794Z,0
2018-05-13T00:50:02.485Z,0
2018-05-13T00:51:02.786Z,0
2018-05-13T00:52:02.733Z,0
2018-05-13T00:53:02.512Z,0
2018-05-13T00:54:02.724Z,0
2018-05-13T00:55:02.526Z,0
2018-05-13T00:56:02.486Z,0
2018-05-13T00:57:02.479Z,0
2018-05-13T00:58:02.460Z,0
2018-05-13T00:59:02.700Z,0
2018-05-13T01:00:02.716Z,0
2018-05-13T01:01:02.458Z,0
2018-05-13T01:02:02.728Z,0
2018-05-13T01:03:02.423Z,0
2018-05-13T01:04:02.179Z,0
2018-05-13T01:05:02.694Z,0
2018-05-13T01:06:02.661Z,0
2018-05-13T01:07:02.699Z,0
2018-05-13T01:08:02.653Z,0
2018-05-13T01:09:02.425Z,0
2018-05-13T01:10:02.640Z,0
2018-05-13T01:11:02.684Z,0
2018-05-13T01:12:02.657Z,0
2018-05-13T01:13:02.145Z,0
2018-05-13T01:14:02.634Z,0
2018-05-13T01:15:02.630Z,0
2018-05-13T01:16:02.398Z,0
2018-05-13T01:17:02.632Z,0
2018-05-13T01:18:02.387Z,0
2018-05-13T01:19:02.597Z,0
2018-05-13T01:20:02.613Z,0
2018-05-13T01:21:05.132Z,0
2018-05-13T01:22:02.596Z,0
2018-05-13T01:23:02.583Z,0
2018-05-13T01:24:02.611Z,0
2018-05-13T01:25:02.604Z,0
2018-05-13T01:26:02.411Z,0
2018-05-13T01:27:02.560Z,0
2018-05-13T01:28:02.537Z,0
2018-05-13T01:29:02.578Z,0
2018-05-13T01:30:02.548Z,0
2018-05-13T01:31:02.556Z,0
2018-05-13T01:32:02.564Z,0
2018-05-13T01:33:02.517Z,0
2018-05-13T01:34:02.318Z,0
2018-05-13T01:35:02.258Z,0
2018-05-13T01:36:02.287Z,0
2018-05-13T01:37:01.989Z,0
2018-05-13T01:38:02.508Z,0
2018-05-13T01:39:02.493Z,0
2018-05-13T01:40:02.525Z,0
2018-05-13T01:41:02.511Z,0
2018-05-13T01:42:02.493Z,0
2018-05-13T01:43:02.225Z,0
2018-05-13T01:44:02.459Z,0
2018-05-13T01:45:02.255Z,0
2018-05-13T01:46:02.227Z,0
2018-05-13T01:47:01.974Z,0
2018-05-13T01:48:01.926Z,0
2018-05-13T01:49:02.470Z,0
2018-05-13T01:50:02.170Z,0
2018-05-13T01:51:02.457Z,0
2018-05-13T01:52:02.409Z,0
2018-05-13T01:53:02.456Z,0
2018-05-13T01:54:02.446Z,0
2018-05-13T01:55:02.432Z,0
2018-05-13T01:56:02.393Z,0
2018-05-13T01:57:02.451Z,0
2018-05-13T01:58:02.402Z,0
2018-05-13T01:59:02.425Z,0
2018-05-13T02:00:02.406Z,0
2018-05-13T02:01:02.436Z,0
2018-05-13T02:02:02.380Z,0
2018-05-13T02:03:01.896Z,0
2018-05-13T02:04:01.848Z,0
2018-05-13T02:05:02.391Z,0
2018-05-13T02:06:02.334Z,0
2018-05-13T02:07:02.362Z,0
2018-05-13T02:08:14.808Z,0
2018-05-13T02:09:02.377Z,0
2018-05-13T02:10:02.344Z,0
2018-05-13T02:11:02.352Z,0
2018-05-13T02:12:02.050Z,0
2018-05-13T02:13:01.813Z,0
2018-05-13T02:14:02.330Z,0
2018-05-13T02:15:02.323Z,0
2018-05-13T02:16:02.343Z,0
2018-05-13T02:17:02.025Z,0
2018-05-13T02:18:02.301Z,0
2018-05-13T02:19:02.012Z,0
2018-05-13T02:20:02.310Z,0
2018-05-13T02:21:02.270Z,0
2018-05-13T02:22:02.026Z,0
2018-05-13T02:23:02.027Z,0
2018-05-13T02:24:02.242Z,0
2018-05-13T02:25:02.023Z,0
2018-05-13T02:26:02.262Z,0
2018-05-13T02:27:02.262Z,0
2018-05-13T02:28:02.229Z,0
2018-05-13T02:29:02.216Z,4
2018-05-13T02:30:02.237Z,4
2018-05-13T02:31:02.236Z,0
2018-05-13T02:32:02.255Z,0
2018-05-13T02:33:02.198Z,4
2018-05-13T02:34:02.226Z,4
2018-05-13T02:35:02.180Z,4
2018-05-13T02:36:02.220Z,4
2018-05-13T02:37:02.177Z,4
2018-05-13T02:38:01.954Z,4
2018-05-13T02:39:02.171Z,8
2018-05-13T02:40:02.216Z,8
2018-05-13T02:41:02.149Z,8
2018-05-13T02:42:02.164Z,8
2018-05-13T02:43:01.894Z,8
2018-05-13T02:44:01.922Z,12
2018-05-13T02:45:02.190Z,12
2018-05-13T02:46:02.135Z,16
2018-05-13T02:47:01.872Z,16
2018-05-13T02:48:02.157Z,20
2018-05-13T02:49:02.123Z,20
2018-05-13T02:50:02.134Z,28
2018-05-13T02:51:02.181Z,32
2018-05-13T02:52:14.604Z,36
2018-05-13T02:53:02.088Z,40
2018-05-13T02:54:02.217Z,44
2018-05-13T02:55:02.204Z,48
2018-05-13T02:56:02.181Z,52
2018-05-13T02:57:01.814Z,60
2018-05-13T02:58:02.077Z,68
2018-05-13T02:59:01.557Z,80
2018-05-13T03:00:01.845Z,88
2018-05-13T03:01:02.078Z,100
2018-05-13T03:02:02.093Z,108
2018-05-13T03:03:01.528Z,116
2018-05-13T03:04:02.021Z,132
2018-05-13T03:05:01.797Z,144
2018-05-13T03:06:02.040Z,160
2018-05-13T03:07:02.059Z,176
2018-05-13T03:08:01.992Z,192
2018-05-13T03:09:01.777Z,208
2018-05-13T03:10:01.986Z,228
2018-05-13T03:11:02.012Z,248
2018-05-13T03:12:01.976Z,268
2018-05-13T03:13:02.057Z,288
2018-05-13T03:14:01.982Z,316
2018-05-13T03:15:01.981Z,340
2018-05-13T03:16:01.993Z,364
2018-05-13T03:17:01.982Z,392
2018-05-13T03:18:01.694Z,420
2018-05-13T03:19:02.197Z,444
2018-05-13T03:20:01.941Z,476
2018-05-13T03:21:01.964Z,500
2018-05-13T03:22:01.933Z,532
2018-05-13T03:23:01.956Z,568
2018-05-13T03:24:01.651Z,600
2018-05-13T03:25:01.689Z,632
2018-05-13T03:26:01.896Z,668
2018-05-13T03:27:01.917Z,704
2018-05-13T03:28:01.628Z,744
2018-05-13T03:29:01.408Z,780
2018-05-13T03:30:01.654Z,820
2018-05-13T03:31:01.907Z,868
2018-05-13T03:32:01.908Z,904
2018-05-13T03:33:01.867Z,948
2018-05-13T03:34:01.895Z,988
2018-05-13T03:35:01.878Z,1028
2018-05-13T03:36:01.885Z,1072
2018-05-13T03:37:01.843Z,1124
2018-05-13T03:38:01.851Z,1176
2018-05-13T03:39:01.609Z,1236
2018-05-13T03:40:01.307Z,1304
2018-05-13T03:41:01.850Z,1384
2018-05-13T03:42:01.800Z,1460
2018-05-13T03:43:01.830Z,1548
2018-05-13T03:44:01.544Z,1624
2018-05-13T03:45:01.845Z,1704
2018-05-13T03:46:01.555Z,1780
2018-05-13T03:47:01.823Z,1864
2018-05-13T03:48:01.774Z,1948
2018-05-13T03:49:01.520Z,2024
2018-05-13T03:50:01.552Z,2116
2018-05-13T03:51:01.527Z,2224
2018-05-13T03:52:01.769Z,2344
2018-05-13T03:53:01.787Z,2452
2018-05-13T03:54:01.753Z,2552
2018-05-13T03:55:01.789Z,2656
2018-05-13T03:56:01.725Z,2760
2018-05-13T03:57:01.766Z,2872
2018-05-13T03:58:01.461Z,2996
2018-05-13T03:59:01.751Z,3096
2018-05-13T04:00:01.454Z,3180
2018-05-13T04:01:01.747Z,3284
2018-05-13T04:02:01.722Z,3384
2018-05-13T04:03:01.722Z,3500
2018-05-13T04:04:01.183Z,3628
2018-05-13T04:05:01.739Z,3752
2018-05-13T04:06:01.184Z,3868
2018-05-13T04:07:01.172Z,4008
2018-05-13T04:08:01.159Z,4104
2018-05-13T04:09:01.202Z,4288
2018-05-13T04:10:01.685Z,4384
2018-05-13T04:11:01.713Z,4588
2018-05-13T04:12:01.653Z,4748
2018-05-13T04:13:01.684Z,4808
2018-05-13T04:14:01.642Z,4972
2018-05-13T04:15:01.673Z,5148
2018-05-13T04:16:01.646Z,5352
2018-05-13T04:17:01.445Z,5524
2018-05-13T04:18:01.398Z,5556
2018-05-13T04:19:01.402Z,5660
2018-05-13T04:20:01.619Z,5792
2018-05-13T04:21:01.621Z,5856
2018-05-13T04:22:01.645Z,5944
2018-05-13T04:23:01.641Z,6084
2018-05-13T04:24:01.653Z,6320
2018-05-13T04:25:01.606Z,6512
2018-05-13T04:26:01.374Z,6816
2018-05-13T04:27:01.594Z,7084
2018-05-13T04:28:01.647Z,7240
2018-05-13T04:29:01.350Z,7488
2018-05-13T04:30:01.644Z,7684
2018-05-13T04:31:01.112Z,7880
2018-05-13T04:32:01.591Z,8180
2018-05-13T04:33:01.630Z,8640
2018-05-13T04:34:01.610Z,8688
2018-05-13T04:35:01.645Z,8704
2018-05-13T04:36:01.582Z,9260
2018-05-13T04:37:01.331Z,9416
2018-05-13T04:38:01.356Z,9480
2018-05-13T04:39:01.607Z,10176
2018-05-13T04:40:01.621Z,10432
2018-05-13T04:41:01.573Z,11108
2018-05-13T04:42:01.345Z,11644
2018-05-13T04:43:01.063Z,11248
2018-05-13T04:44:01.374Z,11612
2018-05-13T04:45:01.573Z,11956
2018-05-13T04:46:01.616Z,11832
2018-05-13T04:47:01.582Z,12088
2018-05-13T04:48:01.622Z,12644
2018-05-13T04:49:01.572Z,13180
2018-05-13T04:50:01.590Z,13432
2018-05-13T04:51:01.588Z,13888
2018-05-13T04:52:01.375Z,14464
2018-05-13T04:53:01.360Z,14816
2018-05-13T04:54:01.597Z,14688
2018-05-13T04:55:01.345Z,15008
2018-05-13T04:56:01.625Z,15904
2018-05-13T04:57:01.334Z,16352
2018-05-13T04:58:01.355Z,16320
2018-05-13T04:59:01.590Z,16320
2018-05-13T05:00:01.641Z,16832
2018-05-13T05:01:01.607Z,16640
2018-05-13T05:02:01.388Z,16288
2018-05-13T05:03:01.613Z,17344
2018-05-13T05:04:01.653Z,17920
2018-05-13T05:05:01.612Z,16384
2018-05-13T05:06:01.628Z,17504
2018-05-13T05:07:01.626Z,19584
2018-05-13T05:08:01.411Z,18080
2018-05-13T05:09:01.536Z,16928
2018-05-13T05:10:01.647Z,18592
2018-05-13T05:11:01.641Z,19296
2018-05-13T05:12:01.631Z,18912
2018-05-13T05:13:01.680Z,19488
2018-05-13T05:14:01.664Z,19680
2018-05-13T05:15:01.435Z,18656
2018-05-13T05:16:01.415Z,18912
2018-05-13T05:17:01.701Z,21344
2018-05-13T05:18:01.668Z,21120
2018-05-13T05:19:01.701Z,18496
2018-05-13T05:20:01.686Z,18784
2018-05-13T05:21:01.728Z,21056
2018-05-13T05:22:01.720Z,21376
2018-05-13T05:23:01.710Z,21504
2018-05-13T05:24:01.228Z,21984
2018-05-13T05:25:01.754Z,21408
2018-05-13T05:26:01.731Z,21536
2018-05-13T05:27:01.728Z,23616
2018-05-13T05:28:02.060Z,25056
2018-05-13T05:29:01.511Z,24224
2018-05-13T05:30:01.760Z,23008
2018-05-13T05:31:01.786Z,23296
2018-05-13T05:32:01.750Z,25088
2018-05-13T05:33:01.795Z,26720
2018-05-13T05:34:01.825Z,26496
2018-05-13T05:35:01.531Z,24608
2018-05-13T05:36:01.842Z,23936
2018-05-13T05:37:01.547Z,26432
2018-05-13T05:38:01.811Z,29248
2018-05-13T05:39:01.808Z,28800
2018-05-13T05:40:01.846Z,25472
2018-05-13T05:41:01.607Z,25152
2018-05-13T05:42:01.581Z,28512
2018-05-13T05:43:01.847Z,28384
2018-05-13T05:44:01.834Z,26240
2018-05-13T05:45:01.881Z,27008
2018-05-13T05:46:01.862Z,29312
2018-05-13T05:47:01.871Z,29536
2018-05-13T05:48:01.915Z,27968
2018-05-13T05:49:01.895Z,27296
2018-05-13T05:50:01.957Z,29664
2018-05-13T05:51:01.907Z,33248
2018-05-13T05:52:01.681Z,33440
2018-05-13T05:53:01.644Z,29632
2018-05-13T05:54:01.682Z,28224
2018-05-13T05:55:01.934Z,31104
2018-05-13T05:56:01.715Z,33792
2018-05-13T05:57:01.716Z,32256
2018-05-13T05:58:01.978Z,29888
2018-05-13T05:59:01.714Z,31008
2018-05-13T06:00:01.707Z,34272
2018-05-13T06:01:02.011Z,34816
2018-05-13T06:02:01.999Z,32864
2018-05-13T06:03:02.047Z,31008
2018-05-13T06:04:01.495Z,30656
2018-05-13T06:05:02.047Z,31744
2018-05-13T06:06:02.030Z,32384
2018-05-13T06:07:01.803Z,32608
2018-05-13T06:08:02.113Z,32768
2018-05-13T06:09:02.087Z,32768
2018-05-13T06:10:02.083Z,32800
2018-05-13T06:11:01.844Z,32512
2018-05-13T06:12:02.069Z,31200
2018-05-13T06:13:02.121Z,30048
2018-05-13T06:14:01.596Z,29568
2018-05-13T06:15:02.113Z,29504
2018-05-13T06:16:02.109Z,29344
2018-05-13T06:17:02.161Z,29248
2018-05-13T06:18:02.148Z,29280
2018-05-13T06:19:02.187Z,28928
2018-05-13T06:20:02.148Z,28864
2018-05-13T06:21:02.197Z,29312
2018-05-13T06:22:01.920Z,30400
2018-05-13T06:23:02.213Z,30944
2018-05-13T06:24:01.953Z,30976
2018-05-13T06:25:02.253Z,32928
2018-05-13T06:26:02.327Z,37504
2018-05-13T06:27:02.250Z,41120
2018-05-13T06:28:02.223Z,44064
2018-05-13T06:29:01.989Z,44320
2018-05-13T06:30:02.279Z,42976
2018-05-13T06:31:02.037Z,41728
2018-05-13T06:32:02.478Z,38208
2018-05-13T06:33:02.292Z,39520
2018-05-13T06:34:02.319Z,47680
2018-05-13T06:35:02.305Z,53024
2018-05-13T06:36:02.376Z,52352
2018-05-13T06:37:02.326Z,51104
2018-05-13T06:38:02.374Z,52512
2018-05-13T06:39:02.125Z,56544
2018-05-13T06:40:02.381Z,61408
2018-05-13T06:41:02.428Z,64288
2018-05-13T06:42:02.404Z,71968
2018-05-13T06:43:02.425Z,81312
2018-05-13T06:44:02.410Z,85952
2018-05-13T06:45:02.170Z,82944
2018-05-13T06:46:02.459Z,73888
2018-05-13T06:47:02.468Z,64416
2018-05-13T06:48:02.498Z,57088
2018-05-13T06:49:02.467Z,51488
2018-05-13T06:50:02.240Z,50368
2018-05-13T06:51:02.610Z,53248
2018-05-13T06:52:02.542Z,58272
2018-05-13T06:53:02.526Z,61792
2018-05-13T06:54:02.569Z,63008
2018-05-13T06:55:02.296Z,63136
2018-05-13T06:56:02.340Z,63136
2018-05-13T06:57:02.052Z,61600
2018-05-13T06:58:02.596Z,56768
2018-05-13T06:59:02.085Z,52320
2018-05-13T07:00:02.641Z,51200
2018-05-13T07:01:02.654Z,49792
2018-05-13T07:02:02.393Z,49600
2018-05-13T07:03:02.405Z,49696
2018-05-13T07:04:02.432Z,49472
2018-05-13T07:05:02.769Z,49536
2018-05-13T07:06:02.705Z,49504
2018-05-13T07:07:02.687Z,49120
2018-05-13T07:08:02.746Z,45728
2018-05-13T07:09:02.712Z,41312
2018-05-13T07:10:02.779Z,39968
2018-05-13T07:11:02.749Z,39488
2018-05-13T07:12:02.800Z,38336
2018-05-13T07:13:02.775Z,36608
2018-05-13T07:14:02.801Z,35552
2018-05-13T07:15:02.553Z,35424
2018-05-13T07:16:02.593Z,35904
2018-05-13T07:17:02.583Z,36928
2018-05-13T07:18:02.863Z,36416
2018-05-13T07:19:02.884Z,35072
2018-05-13T07:20:02.906Z,33696
2018-05-13T07:21:02.381Z,32480
2018-05-13T07:22:02.925Z,31264
2018-05-13T07:23:02.942Z,29248
2018-05-13T07:24:02.980Z,27232
2018-05-13T07:25:02.936Z,25728
2018-05-13T07:26:02.992Z,24064
2018-05-13T07:27:03.013Z,22112
2018-05-13T07:28:02.767Z,22048
2018-05-13T07:29:02.989Z,23936
2018-05-13T07:30:02.792Z,26336
2018-05-13T07:31:03.072Z,28320
2018-05-13T07:32:02.777Z,29888
2018-05-13T07:33:02.794Z,30528
2018-05-13T07:34:02.817Z,31968
2018-05-13T07:35:02.839Z,33440
2018-05-13T07:36:03.120Z,34752
2018-05-13T07:37:02.835Z,36224
2018-05-13T07:38:02.873Z,39040
2018-05-13T07:39:02.870Z,43136
2018-05-13T07:40:02.655Z,44672
2018-05-13T07:41:03.149Z,42464
2018-05-13T07:42:03.201Z,41312
2018-05-13T07:43:03.198Z,43712
2018-05-13T07:44:03.225Z,45856
2018-05-13T07:45:03.239Z,44864
2018-05-13T07:46:03.229Z,41344
2018-05-13T07:47:03.229Z,40096
2018-05-13T07:48:03.274Z,43104
2018-05-13T07:49:03.284Z,48736
2018-05-13T07:50:02.826Z,50848
2018-05-13T07:51:03.643Z,50784
2018-05-13T07:52:03.099Z,51488
2018-05-13T07:53:03.069Z,53984
2018-05-13T07:54:03.319Z,56032
2018-05-13T07:55:03.071Z,56224
2018-05-13T07:56:03.370Z,56032
2018-05-13T07:57:03.337Z,58144
2018-05-13T07:58:03.629Z,61664
2018-05-13T07:59:03.374Z,64320
2018-05-13T08:00:03.161Z,66528
2018-05-13T08:01:03.391Z,70336
2018-05-13T08:02:03.435Z,74048
2018-05-13T08:03:03.428Z,74752
2018-05-13T08:04:03.469Z,70912
2018-05-13T08:05:03.472Z,69504
2018-05-13T08:06:03.511Z,74560
2018-05-13T08:07:03.205Z,74624
2018-05-13T08:08:03.265Z,69504
2018-05-13T08:09:03.376Z,61504
2018-05-13T08:10:03.506Z,51744
2018-05-13T08:11:03.548Z,55392
2018-05-13T08:12:03.521Z,59648
2018-05-13T08:13:03.566Z,61216
2018-05-13T08:14:03.676Z,57440
2018-05-13T08:15:03.332Z,53856
2018-05-13T08:16:03.562Z,55936
2018-05-13T08:17:03.628Z,58720
2018-05-13T08:18:03.613Z,61152
2018-05-13T08:19:03.640Z,58176
2018-05-13T08:20:03.625Z,55232
2018-05-13T08:21:03.657Z,55200
2018-05-13T08:22:03.657Z,61504
2018-05-13T08:23:03.651Z,71104
2018-05-13T08:24:03.647Z,80448
2018-05-13T08:25:03.714Z,88576
2018-05-13T08:26:03.445Z,85024
2018-05-13T08:27:03.216Z,69984
2018-05-13T08:28:03.437Z,52320
2018-05-13T08:29:03.491Z,47264
2018-05-13T08:30:03.716Z,55296
2018-05-13T08:31:03.763Z,66464
2018-05-13T08:32:03.477Z,75776
2018-05-13T08:33:03.799Z,81568
2018-05-13T08:34:03.532Z,83008
2018-05-13T08:35:03.283Z,81056
2018-05-13T08:36:03.521Z,75168
2018-05-13T08:37:03.797Z,69440
2018-05-13T08:38:03.585Z,65888
2018-05-13T08:39:03.590Z,64352
2018-05-13T08:40:03.872Z,64384
2018-05-13T08:41:03.853Z,65440
2018-05-13T08:42:03.700Z,58528
2018-05-13T08:43:03.874Z,30080
2018-05-13T08:44:03.683Z,10456
2018-05-13T08:45:03.630Z,10016
2018-05-13T08:46:03.404Z,9880
2018-05-13T08:47:03.945Z,9836
2018-05-13T08:48:03.647Z,9772
2018-05-13T08:49:03.705Z,9720
2018-05-13T08:50:03.962Z,9700
2018-05-13T08:51:03.970Z,9660
2018-05-13T08:52:03.934Z,9588
2018-05-13T08:53:03.702Z,9524
2018-05-13T08:54:04.235Z,9472
2018-05-13T08:55:04.003Z,9416
2018-05-13T08:56:03.499Z,9352
2018-05-13T08:57:03.986Z,9272
2018-05-13T08:58:03.759Z,9176
2018-05-13T08:59:03.730Z,9096
2018-05-13T09:00:03.803Z,9084
2018-05-13T09:01:04.000Z,9044
2018-05-13T09:02:03.818Z,9008
2018-05-13T09:03:04.046Z,8984
2018-05-13T09:04:04.065Z,8932
2018-05-13T09:05:04.042Z,8872
2018-05-13T09:06:04.045Z,8832
2018-05-13T09:07:04.036Z,8812
2018-05-13T09:08:03.871Z,8796
2018-05-13T09:09:03.574Z,8768
2018-05-13T09:10:04.055Z,8748
2018-05-13T09:11:04.006Z,8732
2018-05-13T09:12:04.116Z,8712
2018-05-13T09:13:04.054Z,8708
2018-05-13T09:14:04.150Z,8704
2018-05-13T09:15:03.799Z,8672
2018-05-13T09:16:03.852Z,8612
2018-05-13T09:17:03.806Z,8560
2018-05-13T09:18:03.850Z,8516
2018-05-13T09:19:04.086Z,8460
2018-05-13T09:20:03.883Z,8420
2018-05-13T09:21:04.391Z,8376
2018-05-13T09:22:04.090Z,8316
2018-05-13T09:23:03.833Z,8236
2018-05-13T09:24:03.638Z,8160
2018-05-13T09:25:04.133Z,8132
2018-05-13T09:26:03.839Z,8092
2018-05-13T09:27:03.844Z,8056
2018-05-13T09:28:03.833Z,8000
2018-05-13T09:29:04.139Z,7932
2018-05-13T09:30:04.119Z,7796
2018-05-13T09:31:03.884Z,7700
2018-05-13T09:32:03.836Z,7644
2018-05-13T09:33:03.781Z,7640
2018-05-13T09:34:03.838Z,7648
2018-05-13T09:35:03.622Z,7604
2018-05-13T09:36:03.855Z,7516
2018-05-13T09:37:04.161Z,7504
2018-05-13T09:38:04.130Z,7532
2018-05-13T09:39:03.868Z,7652
2018-05-13T09:40:04.171Z,7688
2018-05-13T09:41:03.894Z,7692
2018-05-13T09:42:04.129Z,7616
2018-05-13T09:43:03.895Z,7540
2018-05-13T09:44:03.873Z,7540
2018-05-13T09:45:03.644Z,7484
2018-05-13T09:46:04.015Z,7436
2018-05-13T09:47:03.909Z,7396
2018-05-13T09:48:04.116Z,7380
2018-05-13T09:49:04.167Z,7336
2018-05-13T09:50:03.867Z,7292
2018-05-13T09:51:04.161Z,7236
2018-05-13T09:52:04.173Z,7192
2018-05-13T09:53:03.914Z,7136
2018-05-13T09:54:04.172Z,7088
2018-05-13T09:55:03.903Z,7040
2018-05-13T09:56:03.895Z,6996
2018-05-13T09:57:03.884Z,6944
2018-05-13T09:58:03.908Z,6924
2018-05-13T09:59:03.914Z,6920
2018-05-13T10:00:04.186Z,6908
2018-05-13T10:01:04.154Z,6880
2018-05-13T10:02:03.860Z,6852
2018-05-13T10:03:03.913Z,6812
2018-05-13T10:04:04.087Z,6768
2018-05-13T10:05:04.194Z,6716
2018-05-13T10:06:04.148Z,6664
2018-05-13T10:07:03.928Z,6620
2018-05-13T10:08:04.152Z,6580
2018-05-13T10:09:04.201Z,6548
2018-05-13T10:10:04.204Z,6532
2018-05-13T10:11:04.202Z,6516
2018-05-13T10:12:03.658Z,6492
2018-05-13T10:13:04.169Z,6472
2018-05-13T10:14:03.938Z,6444
2018-05-13T10:15:03.935Z,6408
2018-05-13T10:16:04.222Z,6392
2018-05-13T10:17:03.933Z,6368
2018-05-13T10:18:04.199Z,6336
2018-05-13T10:19:03.919Z,6308
2018-05-13T10:20:04.238Z,6260
2018-05-13T10:21:03.923Z,6220
2018-05-13T10:22:03.964Z,6188
2018-05-13T10:23:04.187Z,6148
2018-05-13T10:24:04.229Z,6124
2018-05-13T10:25:03.942Z,6100
2018-05-13T10:26:03.952Z,6060
2018-05-13T10:27:03.950Z,6020
2018-05-13T10:28:04.246Z,5988
2018-05-13T10:29:03.935Z,5964
2018-05-13T10:30:04.240Z,5944
2018-05-13T10:31:04.230Z,5928
2018-05-13T10:32:03.986Z,5908
2018-05-13T10:33:04.200Z,5876
2018-05-13T10:34:03.964Z,5824
2018-05-13T10:35:03.955Z,5772
2018-05-13T10:36:04.007Z,5724
2018-05-13T10:37:03.948Z,5684
2018-05-13T10:38:03.998Z,5660
2018-05-13T10:39:04.218Z,5648
2018-05-13T10:40:04.260Z,5628
2018-05-13T10:41:04.210Z,5608
2018-05-13T10:42:03.761Z,5588
2018-05-13T10:43:03.988Z,5564
2018-05-13T10:44:04.208Z,5536
2018-05-13T10:45:04.218Z,5516
2018-05-13T10:46:03.987Z,5488
2018-05-13T10:47:03.997Z,5452
2018-05-13T10:48:04.280Z,5432
2018-05-13T10:49:04.294Z,5408
2018-05-13T10:50:04.018Z,5384
2018-05-13T10:51:04.228Z,5356
2018-05-13T10:52:03.778Z,5320
2018-05-13T10:53:04.252Z,5292
2018-05-13T10:54:04.003Z,5264
2018-05-13T10:55:04.260Z,5256
2018-05-13T10:56:03.977Z,5252
2018-05-13T10:57:04.301Z,5260
2018-05-13T10:58:04.007Z,5256
2018-05-13T10:59:04.016Z,5252
2018-05-13T11:00:03.999Z,5244
2018-05-13T11:01:04.016Z,5228
2018-05-13T11:02:04.020Z,5216
2018-05-13T11:03:04.036Z,5196
2018-05-13T11:04:03.801Z,5172
2018-05-13T11:05:04.016Z,5140
2018-05-13T11:06:04.298Z,5104
2018-05-13T11:07:04.255Z,5092
2018-05-13T11:08:04.473Z,5088
2018-05-13T11:09:04.275Z,5076
2018-05-13T11:10:04.323Z,5072
2018-05-13T11:11:04.276Z,5060
2018-05-13T11:12:04.052Z,5048
2018-05-13T11:13:04.269Z,5044
2018-05-13T11:14:04.027Z,5040
2018-05-13T11:15:04.061Z,5032
2018-05-13T11:16:04.328Z,5012
2018-05-13T11:17:04.068Z,4992
2018-05-13T11:18:03.787Z,4988
2018-05-13T11:19:04.040Z,4984
2018-05-13T11:20:04.062Z,4972
2018-05-13T11:21:04.050Z,4968
2018-05-13T11:22:04.066Z,4960
2018-05-13T11:23:04.027Z,4948
2018-05-13T11:24:04.073Z,4928
2018-05-13T11:25:04.064Z,4924
2018-05-13T11:26:04.091Z,4900
2018-05-13T11:27:03.790Z,4872
2018-05-13T11:28:03.836Z,4848
2018-05-13T11:29:04.300Z,4836
2018-05-13T11:30:04.062Z,4832
2018-05-13T11:31:04.316Z,4816
2018-05-13T11:32:04.352Z,4796
2018-05-13T11:33:04.345Z,4784
2018-05-13T11:34:04.323Z,4768
2018-05-13T11:35:04.071Z,4732
2018-05-13T11:36:04.053Z,4684
2018-05-13T11:37:04.096Z,4624
2018-05-13T11:38:04.080Z,4592
2018-05-13T11:39:03.853Z,4608
2018-05-13T11:40:04.171Z,4624
2018-05-13T11:41:04.366Z,4608
2018-05-13T11:42:04.335Z,4600
2018-05-13T11:43:04.093Z,4620
2018-05-13T11:44:03.816Z,4644
2018-05-13T11:45:03.852Z,4640
2018-05-13T11:46:03.844Z,4648
2018-05-13T11:47:04.101Z,4620
2018-05-13T11:48:04.401Z,4620
2018-05-13T11:49:04.110Z,4632
2018-05-13T11:50:04.088Z,4640
2018-05-13T11:51:04.356Z,4636
2018-05-13T11:52:04.347Z,4664
2018-05-13T11:53:04.380Z,4700
2018-05-13T11:54:04.354Z,4724
2018-05-13T11:55:04.402Z,4744
2018-05-13T11:56:04.105Z,4724
2018-05-13T11:57:04.145Z,4712
2018-05-13T11:58:04.351Z,4684
2018-05-13T11:59:03.867Z,4652
2018-05-13T12:00:04.104Z,4644
2018-05-13T12:01:04.396Z,4624
2018-05-13T12:02:04.504Z,4608
2018-05-13T12:03:04.131Z,4576
2018-05-13T12:04:04.107Z,4564
2018-05-13T12:05:04.375Z,4564
2018-05-13T12:06:04.387Z,4580
2018-05-13T12:07:04.150Z,4604
2018-05-13T12:08:04.154Z,4628
2018-05-13T12:09:04.120Z,4656
2018-05-13T12:10:04.412Z,4656
2018-05-13T12:11:04.147Z,4680
2018-05-13T12:12:04.388Z,4680
2018-05-13T12:13:04.164Z,4648
2018-05-13T12:14:04.116Z,4604
2018-05-13T12:15:03.958Z,4564
2018-05-13T12:16:04.216Z,4568
2018-05-13T12:17:04.425Z,4592
2018-05-13T12:18:04.155Z,4580
2018-05-13T12:19:04.152Z,4572
2018-05-13T12:20:04.150Z,4556
2018-05-13T12:21:04.258Z,4544
2018-05-13T12:22:04.159Z,4548
2018-05-13T12:23:04.166Z,4564
2018-05-13T12:24:04.396Z,4580
2018-05-13T12:25:04.517Z,4592
2018-05-13T12:26:04.154Z,4600
2018-05-13T12:27:04.199Z,4600
2018-05-13T12:28:04.399Z,4588
2018-05-13T12:29:05.181Z,4580
2018-05-13T12:30:04.156Z,4584
2018-05-13T12:31:04.436Z,4596
2018-05-13T12:32:04.150Z,4620
2018-05-13T12:33:03.933Z,4644
2018-05-13T12:34:04.182Z,4652
2018-05-13T12:35:03.925Z,4668
2018-05-13T12:36:04.161Z,4680
2018-05-13T12:37:03.933Z,4668
2018-05-13T12:38:04.711Z,4644
2018-05-13T12:39:04.180Z,4620
2018-05-13T12:40:04.157Z,4612
2018-05-13T12:41:04.229Z,4616
2018-05-13T12:42:04.450Z,4640
2018-05-13T12:43:03.947Z,4656
2018-05-13T12:44:04.169Z,4680
2018-05-13T12:45:03.947Z,4692
2018-05-13T12:46:03.913Z,4696
2018-05-13T12:47:04.485Z,4688
2018-05-13T12:48:04.423Z,4684
2018-05-13T12:49:04.221Z,4676
2018-05-13T12:50:04.513Z,4672
2018-05-13T12:51:03.955Z,4676
2018-05-13T12:52:04.188Z,4680
2018-05-13T12:53:04.443Z,4684
2018-05-13T12:54:04.471Z,4704
2018-05-13T12:55:04.466Z,4696
2018-05-13T12:56:04.228Z,4716
2018-05-13T12:57:04.200Z,4716
2018-05-13T12:58:04.217Z,4716
2018-05-13T12:59:04.200Z,4724
2018-05-13T13:00:04.234Z,4732
2018-05-13T13:01:04.467Z,4736
2018-05-13T13:02:04.230Z,4740
2018-05-13T13:03:04.482Z,4748
2018-05-13T13:04:04.206Z,4744
2018-05-13T13:05:04.247Z,4728
2018-05-13T13:06:04.232Z,4712
2018-05-13T13:07:03.726Z,4716
2018-05-13T13:08:04.220Z,4724
2018-05-13T13:09:04.284Z,4736
2018-05-13T13:10:04.235Z,4740
2018-05-13T13:11:04.248Z,4740
2018-05-13T13:12:04.005Z,4732
2018-05-13T13:13:04.124Z,4736
2018-05-13T13:14:04.514Z,4732
2018-05-13T13:15:04.259Z,4728
2018-05-13T13:16:04.272Z,4728
2018-05-13T13:17:04.232Z,4724
2018-05-13T13:18:04.265Z,4716
2018-05-13T13:19:04.250Z,4712
2018-05-13T13:20:04.386Z,4700
2018-05-13T13:21:04.487Z,4700
2018-05-13T13:22:04.595Z,4692
2018-05-13T13:23:04.504Z,4676
2018-05-13T13:24:04.540Z,4668
2018-05-13T13:25:04.548Z,4672
2018-05-13T13:26:04.704Z,4676
2018-05-13T13:27:04.255Z,4680
2018-05-13T13:28:04.303Z,4684
2018-05-13T13:29:03.993Z,4672
2018-05-13T13:30:04.017Z,4672
2018-05-13T13:31:04.261Z,4660
2018-05-13T13:32:04.325Z,4640
2018-05-13T13:33:04.012Z,4644
2018-05-13T13:34:04.552Z,4652
2018-05-13T13:35:04.526Z,4648
2018-05-13T13:36:04.298Z,4652
2018-05-13T13:37:04.509Z,4660
2018-05-13T13:38:04.273Z,4664